sensor_id;sensor_type;location;lat;lon;timestamp;P1;durP1;ratioP1;P2;durP2;ratioP2
37085;SDS011;23001;45.952;12.676;2024-03-08T00:01:40;6.13;;;5.38;;
37085;SDS011;23001;45.952;12.676;2024-03-08T00:04:06;5.70;;;5.10;;
37085;SDS011;23001;45.952;12.676;2024-03-08T00:06:33;5.00;;;4.47;;
37085;SDS011;23001;45.952;12.676;2024-03-08T00:09:01;5.65;;;4.88;;
37085;SDS011;23001;45.952;12.676;2024-03-08T00:11:35;6.50;;;4.90;;
37085;SDS011;23001;45.952;12.676;2024-03-08T00:14:11;5.43;;;4.93;;
37085;SDS011;23001;45.952;12.676;2024-03-08T00:16:45;4.57;;;4.07;;
37085;SDS011;23001;45.952;12.676;2024-03-08T00:21:44;5.55;;;4.35;;
37085;SDS011;23001;45.952;12.676;2024-03-08T00:24:15;5.00;;;4.25;;
37085;SDS011;23001;45.952;12.676;2024-03-08T00:26:52;4.75;;;4.15;;
37085;SDS011;23001;45.952;12.676;2024-03-08T00:29:26;5.05;;;4.50;;
37085;SDS011;23001;45.952;12.676;2024-03-08T00:32:03;4.50;;;4.10;;
37085;SDS011;23001;45.952;12.676;2024-03-08T00:35:00;4.35;;;3.67;;
37085;SDS011;23001;45.952;12.676;2024-03-08T00:37:28;5.05;;;4.50;;
37085;SDS011;23001;45.952;12.676;2024-03-08T00:40:00;3.95;;;3.50;;
37085;SDS011;23001;45.952;12.676;2024-03-08T00:42:31;3.95;;;3.55;;
37085;SDS011;23001;45.952;12.676;2024-03-08T00:45:07;2.90;;;2.70;;
37085;SDS011;23001;45.952;12.676;2024-03-08T00:47:49;3.88;;;3.05;;
37085;SDS011;23001;45.952;12.676;2024-03-08T00:50:18;2.78;;;2.40;;
37085;SDS011;23001;45.952;12.676;2024-03-08T00:52:47;2.53;;;2.17;;
37085;SDS011;23001;45.952;12.676;2024-03-08T00:55:19;2.30;;;2.10;;
37085;SDS011;23001;45.952;12.676;2024-03-08T00:57:46;2.40;;;2.20;;
37085;SDS011;23001;45.952;12.676;2024-03-08T01:00:15;2.53;;;1.90;;
37085;SDS011;23001;45.952;12.676;2024-03-08T01:02:50;2.20;;;1.90;;
37085;SDS011;23001;45.952;12.676;2024-03-08T01:05:25;1.85;;;1.70;;
37085;SDS011;23001;45.952;12.676;2024-03-08T01:29:42;2.15;;;1.98;;
37085;SDS011;23001;45.952;12.676;2024-03-08T01:32:43;1.55;;;1.40;;
37085;SDS011;23001;45.952;12.676;2024-03-08T01:35:12;1.83;;;1.70;;
37085;SDS011;23001;45.952;12.676;2024-03-08T01:37:38;2.00;;;1.88;;
37085;SDS011;23001;45.952;12.676;2024-03-08T01:40:04;1.80;;;1.70;;
37085;SDS011;23001;45.952;12.676;2024-03-08T01:42:30;1.90;;;1.67;;
37085;SDS011;23001;45.952;12.676;2024-03-08T01:44:56;1.67;;;1.58;;
37085;SDS011;23001;45.952;12.676;2024-03-08T01:47:22;1.60;;;1.50;;
37085;SDS011;23001;45.952;12.676;2024-03-08T01:49:50;1.80;;;1.70;;
37085;SDS011;23001;45.952;12.676;2024-03-08T01:52:17;1.50;;;1.40;;
37085;SDS011;23001;45.952;12.676;2024-03-08T01:54:48;1.65;;;1.55;;
37085;SDS011;23001;45.952;12.676;2024-03-08T01:57:14;1.67;;;1.58;;
37085;SDS011;23001;45.952;12.676;2024-03-08T01:59:43;1.58;;;1.48;;
37085;SDS011;23001;45.952;12.676;2024-03-08T02:02:12;1.80;;;1.70;;
37085;SDS011;23001;45.952;12.676;2024-03-08T02:04:44;2.15;;;1.50;;
37085;SDS011;23001;45.952;12.676;2024-03-08T02:07:12;1.33;;;1.20;;
37085;SDS011;23001;45.952;12.676;2024-03-08T02:09:44;1.52;;;1.42;;
37085;SDS011;23001;45.952;12.676;2024-03-08T02:12:14;2.78;;;1.55;;
37085;SDS011;23001;45.952;12.676;2024-03-08T02:15:00;1.85;;;1.55;;
37085;SDS011;23001;45.952;12.676;2024-03-08T02:17:31;1.83;;;1.60;;
37085;SDS011;23001;45.952;12.676;2024-03-08T02:20:17;1.52;;;1.42;;
37085;SDS011;23001;45.952;12.676;2024-03-08T02:22:54;1.73;;;1.63;;
37085;SDS011;23001;45.952;12.676;2024-03-08T02:25:55;3.08;;;2.20;;
37085;SDS011;23001;45.952;12.676;2024-03-08T02:28:43;2.42;;;1.92;;
37085;SDS011;23001;45.952;12.676;2024-03-08T02:31:12;2.15;;;1.95;;
37085;SDS011;23001;45.952;12.676;2024-03-08T02:33:55;2.40;;;2.17;;
37085;SDS011;23001;45.952;12.676;2024-03-08T02:36:27;2.10;;;1.90;;
37085;SDS011;23001;45.952;12.676;2024-03-08T02:39:01;2.78;;;2.40;;
37085;SDS011;23001;45.952;12.676;2024-03-08T02:41:36;3.35;;;2.30;;
37085;SDS011;23001;45.952;12.676;2024-03-08T02:44:02;4.43;;;2.20;;
37085;SDS011;23001;45.952;12.676;2024-03-08T02:46:28;2.42;;;2.20;;
37085;SDS011;23001;45.952;12.676;2024-03-08T02:48:55;2.50;;;2.30;;
37085;SDS011;23001;45.952;12.676;2024-03-08T02:51:21;2.60;;;2.40;;
37085;SDS011;23001;45.952;12.676;2024-03-08T02:53:51;2.53;;;2.22;;
37085;SDS011;23001;45.952;12.676;2024-03-08T02:56:22;2.33;;;2.13;;
37085;SDS011;23001;45.952;12.676;2024-03-08T02:58:47;1.92;;;1.83;;
37085;SDS011;23001;45.952;12.676;2024-03-08T03:01:18;2.17;;;1.98;;
37085;SDS011;23001;45.952;12.676;2024-03-08T03:03:48;3.33;;;2.88;;
37085;SDS011;23001;45.952;12.676;2024-03-08T03:06:53;2.60;;;2.10;;
37085;SDS011;23001;45.952;12.676;2024-03-08T03:09:32;3.28;;;2.60;;
37085;SDS011;23001;45.952;12.676;2024-03-08T03:12:07;2.40;;;2.17;;
37085;SDS011;23001;45.952;12.676;2024-03-08T03:14:44;2.80;;;2.38;;
37085;SDS011;23001;45.952;12.676;2024-03-08T03:19:48;2.75;;;2.38;;
37085;SDS011;23001;45.952;12.676;2024-03-08T03:25:21;2.75;;;2.47;;
37085;SDS011;23001;45.952;12.676;2024-03-08T03:27:56;2.72;;;2.50;;
37085;SDS011;23001;45.952;12.676;2024-03-08T03:30:27;3.10;;;2.80;;
37085;SDS011;23001;45.952;12.676;2024-03-08T03:33:02;2.80;;;2.60;;
37085;SDS011;23001;45.952;12.676;2024-03-08T03:35:50;3.38;;;3.08;;
37085;SDS011;23001;45.952;12.676;2024-03-08T03:38:21;4.93;;;3.67;;
37085;SDS011;23001;45.952;12.676;2024-03-08T03:40:53;4.43;;;3.60;;
37085;SDS011;23001;45.952;12.676;2024-03-08T03:43:23;3.42;;;3.13;;
37085;SDS011;23001;45.952;12.676;2024-03-08T03:45:49;3.13;;;2.78;;
37085;SDS011;23001;45.952;12.676;2024-03-08T03:48:19;3.10;;;2.80;;
37085;SDS011;23001;45.952;12.676;2024-03-08T03:51:11;5.65;;;3.00;;
37085;SDS011;23001;45.952;12.676;2024-03-08T03:53:48;4.43;;;3.10;;
37085;SDS011;23001;45.952;12.676;2024-03-08T03:56:28;3.53;;;2.78;;
37085;SDS011;23001;45.952;12.676;2024-03-08T03:59:04;3.17;;;2.70;;
37085;SDS011;23001;45.952;12.676;2024-03-08T04:01:30;2.97;;;2.63;;
37085;SDS011;23001;45.952;12.676;2024-03-08T04:03:55;2.88;;;2.60;;
37085;SDS011;23001;45.952;12.676;2024-03-08T04:06:24;2.85;;;2.40;;
37085;SDS011;23001;45.952;12.676;2024-03-08T04:08:50;3.22;;;2.25;;
37085;SDS011;23001;45.952;12.676;2024-03-08T04:11:19;2.63;;;2.42;;
37085;SDS011;23001;45.952;12.676;2024-03-08T04:13:44;2.90;;;2.70;;
37085;SDS011;23001;45.952;12.676;2024-03-08T04:16:10;3.40;;;3.10;;
37085;SDS011;23001;45.952;12.676;2024-03-08T04:18:36;3.20;;;2.90;;
37085;SDS011;23001;45.952;12.676;2024-03-08T04:21:04;3.03;;;2.78;;
37085;SDS011;23001;45.952;12.676;2024-03-08T04:23:33;3.05;;;2.72;;
37085;SDS011;23001;45.952;12.676;2024-03-08T04:26:02;4.68;;;2.85;;
37085;SDS011;23001;45.952;12.676;2024-03-08T04:28:29;2.85;;;2.58;;
37085;SDS011;23001;45.952;12.676;2024-03-08T04:30:56;3.53;;;3.13;;
37085;SDS011;23001;45.952;12.676;2024-03-08T04:33:22;3.30;;;2.80;;
37085;SDS011;23001;45.952;12.676;2024-03-08T04:35:48;4.45;;;3.10;;
37085;SDS011;23001;45.952;12.676;2024-03-08T04:38:14;4.13;;;3.40;;
37085;SDS011;23001;45.952;12.676;2024-03-08T04:40:40;3.95;;;2.97;;
37085;SDS011;23001;45.952;12.676;2024-03-08T04:43:07;3.25;;;2.95;;
37085;SDS011;23001;45.952;12.676;2024-03-08T04:45:33;2.85;;;2.60;;
37085;SDS011;23001;45.952;12.676;2024-03-08T04:47:59;3.17;;;2.88;;
37085;SDS011;23001;45.952;12.676;2024-03-08T04:50:29;3.40;;;2.90;;
37085;SDS011;23001;45.952;12.676;2024-03-08T04:52:55;3.30;;;2.72;;
37085;SDS011;23001;45.952;12.676;2024-03-08T04:55:26;3.88;;;2.80;;
37085;SDS011;23001;45.952;12.676;2024-03-08T04:57:52;2.78;;;2.58;;
37085;SDS011;23001;45.952;12.676;2024-03-08T05:00:18;2.97;;;2.78;;
37085;SDS011;23001;45.952;12.676;2024-03-08T05:02:44;3.53;;;3.20;;
37085;SDS011;23001;45.952;12.676;2024-03-08T05:05:10;4.60;;;3.45;;
37085;SDS011;23001;45.952;12.676;2024-03-08T05:07:40;3.85;;;3.45;;
37085;SDS011;23001;45.952;12.676;2024-03-08T05:10:09;5.22;;;4.28;;
37085;SDS011;23001;45.952;12.676;2024-03-08T05:12:39;4.90;;;4.40;;
37085;SDS011;23001;45.952;12.676;2024-03-08T05:15:06;5.57;;;4.57;;
37085;SDS011;23001;45.952;12.676;2024-03-08T05:17:35;6.55;;;4.97;;
37085;SDS011;23001;45.952;12.676;2024-03-08T05:20:03;5.47;;;4.75;;
37085;SDS011;23001;45.952;12.676;2024-03-08T05:22:34;5.18;;;4.68;;
37085;SDS011;23001;45.952;12.676;2024-03-08T05:25:00;6.03;;;5.22;;
37085;SDS011;23001;45.952;12.676;2024-03-08T05:27:29;5.03;;;4.53;;
37085;SDS011;23001;45.952;12.676;2024-03-08T05:29:54;5.80;;;5.20;;
37085;SDS011;23001;45.952;12.676;2024-03-08T05:32:20;5.40;;;4.90;;
37085;SDS011;23001;45.952;12.676;2024-03-08T05:34:46;6.82;;;5.13;;
37085;SDS011;23001;45.952;12.676;2024-03-08T05:37:12;7.30;;;5.22;;
37085;SDS011;23001;45.952;12.676;2024-03-08T05:39:41;6.00;;;5.07;;
37085;SDS011;23001;45.952;12.676;2024-03-08T05:42:06;5.60;;;5.10;;
37085;SDS011;23001;45.952;12.676;2024-03-08T05:44:33;5.40;;;4.75;;
37085;SDS011;23001;45.952;12.676;2024-03-08T05:46:59;4.95;;;4.47;;
37085;SDS011;23001;45.952;12.676;2024-03-08T05:49:25;5.82;;;4.90;;
37085;SDS011;23001;45.952;12.676;2024-03-08T05:51:51;4.93;;;4.50;;
37085;SDS011;23001;45.952;12.676;2024-03-08T05:54:17;5.03;;;4.53;;
37085;SDS011;23001;45.952;12.676;2024-03-08T05:56:42;5.63;;;4.50;;
37085;SDS011;23001;45.952;12.676;2024-03-08T05:59:09;5.80;;;4.28;;
37085;SDS011;23001;45.952;12.676;2024-03-08T06:01:38;6.40;;;4.88;;
37085;SDS011;23001;45.952;12.676;2024-03-08T06:04:14;4.70;;;4.30;;
37085;SDS011;23001;45.952;12.676;2024-03-08T06:06:40;4.63;;;4.22;;
37085;SDS011;23001;45.952;12.676;2024-03-08T06:09:11;4.80;;;4.35;;
37085;SDS011;23001;45.952;12.676;2024-03-08T06:11:42;5.28;;;4.72;;
37085;SDS011;23001;45.952;12.676;2024-03-08T06:14:09;5.95;;;4.78;;
37085;SDS011;23001;45.952;12.676;2024-03-08T06:19:18;5.10;;;4.60;;
37085;SDS011;23001;45.952;12.676;2024-03-08T06:21:59;4.78;;;4.35;;
37085;SDS011;23001;45.952;12.676;2024-03-08T06:24:41;5.07;;;4.30;;
37085;SDS011;23001;45.952;12.676;2024-03-08T06:27:11;6.78;;;4.95;;
37085;SDS011;23001;45.952;12.676;2024-03-08T06:29:41;5.40;;;4.47;;
37085;SDS011;23001;45.952;12.676;2024-03-08T06:32:15;4.75;;;4.25;;
37085;SDS011;23001;45.952;12.676;2024-03-08T06:34:41;6.07;;;5.30;;
37085;SDS011;23001;45.952;12.676;2024-03-08T06:40:25;7.25;;;5.50;;
37085;SDS011;23001;45.952;12.676;2024-03-08T06:42:50;5.80;;;5.30;;
37085;SDS011;23001;45.952;12.676;2024-03-08T06:45:17;7.30;;;5.72;;
37085;SDS011;23001;45.952;12.676;2024-03-08T06:47:46;5.68;;;4.97;;
37085;SDS011;23001;45.952;12.676;2024-03-08T06:50:12;6.50;;;5.72;;
37085;SDS011;23001;45.952;12.676;2024-03-08T06:52:38;6.68;;;5.18;;
37085;SDS011;23001;45.952;12.676;2024-03-08T06:55:05;6.38;;;5.30;;
37085;SDS011;23001;45.952;12.676;2024-03-08T06:57:31;6.13;;;5.45;;
37085;SDS011;23001;45.952;12.676;2024-03-08T06:59:57;8.57;;;5.68;;
37085;SDS011;23001;45.952;12.676;2024-03-08T07:02:23;6.68;;;5.97;;
37085;SDS011;23001;45.952;12.676;2024-03-08T07:04:51;6.63;;;5.75;;
37085;SDS011;23001;45.952;12.676;2024-03-08T07:07:18;8.23;;;6.90;;
37085;SDS011;23001;45.952;12.676;2024-03-08T07:09:45;7.28;;;6.10;;
37085;SDS011;23001;45.952;12.676;2024-03-08T07:12:11;7.50;;;6.15;;
37085;SDS011;23001;45.952;12.676;2024-03-08T07:14:38;8.80;;;5.93;;
37085;SDS011;23001;45.952;12.676;2024-03-08T07:17:10;7.40;;;6.45;;
37085;SDS011;23001;45.952;12.676;2024-03-08T07:19:36;6.85;;;6.05;;
37085;SDS011;23001;45.952;12.676;2024-03-08T07:22:03;7.13;;;6.18;;
37085;SDS011;23001;45.952;12.676;2024-03-08T07:24:33;8.25;;;6.43;;
37085;SDS011;23001;45.952;12.676;2024-03-08T07:27:02;7.18;;;6.47;;
37085;SDS011;23001;45.952;12.676;2024-03-08T07:29:30;7.50;;;6.43;;
37085;SDS011;23001;45.952;12.676;2024-03-08T07:32:01;7.95;;;7.15;;
37085;SDS011;23001;45.952;12.676;2024-03-08T07:34:46;7.75;;;6.78;;
37085;SDS011;23001;45.952;12.676;2024-03-08T07:37:13;9.50;;;7.22;;
37085;SDS011;23001;45.952;12.676;2024-03-08T07:39:39;7.40;;;6.53;;
37085;SDS011;23001;45.952;12.676;2024-03-08T07:42:05;7.35;;;6.57;;
37085;SDS011;23001;45.952;12.676;2024-03-08T07:44:31;8.40;;;7.22;;
37085;SDS011;23001;45.952;12.676;2024-03-08T07:47:00;8.32;;;7.43;;
37085;SDS011;23001;45.952;12.676;2024-03-08T07:49:26;7.78;;;6.22;;
37085;SDS011;23001;45.952;12.676;2024-03-08T07:51:52;8.48;;;7.35;;
37085;SDS011;23001;45.952;12.676;2024-03-08T07:54:18;9.80;;;7.63;;
37085;SDS011;23001;45.952;12.676;2024-03-08T07:56:43;8.07;;;6.97;;
37085;SDS011;23001;45.952;12.676;2024-03-08T07:59:09;7.32;;;6.63;;
37085;SDS011;23001;45.952;12.676;2024-03-08T08:01:37;9.88;;;8.05;;
37085;SDS011;23001;45.952;12.676;2024-03-08T08:04:03;7.55;;;6.68;;
37085;SDS011;23001;45.952;12.676;2024-03-08T08:06:29;8.38;;;7.10;;
37085;SDS011;23001;45.952;12.676;2024-03-08T08:09:00;8.55;;;7.28;;
37085;SDS011;23001;45.952;12.676;2024-03-08T08:11:26;10.07;;;8.02;;
37085;SDS011;23001;45.952;12.676;2024-03-08T08:13:55;9.90;;;8.10;;
37085;SDS011;23001;45.952;12.676;2024-03-08T08:16:24;9.40;;;7.63;;
37085;SDS011;23001;45.952;12.676;2024-03-08T08:18:50;9.35;;;7.93;;
37085;SDS011;23001;45.952;12.676;2024-03-08T08:21:17;9.15;;;7.65;;
37085;SDS011;23001;45.952;12.676;2024-03-08T08:23:43;10.88;;;8.98;;
37085;SDS011;23001;45.952;12.676;2024-03-08T08:26:10;10.50;;;8.60;;
37085;SDS011;23001;45.952;12.676;2024-03-08T08:28:36;9.13;;;8.18;;
37085;SDS011;23001;45.952;12.676;2024-03-08T08:31:03;9.07;;;7.47;;
37085;SDS011;23001;45.952;12.676;2024-03-08T08:33:29;8.20;;;6.90;;
37085;SDS011;23001;45.952;12.676;2024-03-08T08:35:55;8.48;;;7.45;;
37085;SDS011;23001;45.952;12.676;2024-03-08T08:38:21;9.40;;;7.55;;
37085;SDS011;23001;45.952;12.676;2024-03-08T08:40:48;8.52;;;7.35;;
37085;SDS011;23001;45.952;12.676;2024-03-08T08:43:15;9.02;;;8.13;;
37085;SDS011;23001;45.952;12.676;2024-03-08T08:45:42;9.32;;;7.70;;
37085;SDS011;23001;45.952;12.676;2024-03-08T08:48:07;9.35;;;7.95;;
37085;SDS011;23001;45.952;12.676;2024-03-08T08:50:35;8.68;;;7.78;;
37085;SDS011;23001;45.952;12.676;2024-03-08T08:53:01;10.50;;;8.40;;
37085;SDS011;23001;45.952;12.676;2024-03-08T08:55:28;9.07;;;7.18;;
37085;SDS011;23001;45.952;12.676;2024-03-08T08:57:55;10.70;;;7.78;;
37085;SDS011;23001;45.952;12.676;2024-03-08T09:00:21;10.07;;;7.85;;
37085;SDS011;23001;45.952;12.676;2024-03-08T09:02:52;10.10;;;8.43;;
37085;SDS011;23001;45.952;12.676;2024-03-08T09:05:20;11.07;;;8.90;;
37085;SDS011;23001;45.952;12.676;2024-03-08T09:07:46;9.85;;;8.10;;
37085;SDS011;23001;45.952;12.676;2024-03-08T09:10:12;10.88;;;8.00;;
37085;SDS011;23001;45.952;12.676;2024-03-08T09:12:39;12.38;;;9.23;;
37085;SDS011;23001;45.952;12.676;2024-03-08T09:15:05;13.50;;;9.48;;
37085;SDS011;23001;45.952;12.676;2024-03-08T09:17:35;9.70;;;8.63;;
37085;SDS011;23001;45.952;12.676;2024-03-08T09:20:04;11.52;;;9.05;;
37085;SDS011;23001;45.952;12.676;2024-03-08T09:22:31;10.27;;;9.18;;
37085;SDS011;23001;45.952;12.676;2024-03-08T09:24:57;11.07;;;8.60;;
37085;SDS011;23001;45.952;12.676;2024-03-08T09:27:23;11.32;;;9.02;;
37085;SDS011;23001;45.952;12.676;2024-03-08T09:29:49;10.32;;;8.73;;
37085;SDS011;23001;45.952;12.676;2024-03-08T09:32:14;10.70;;;8.98;;
37085;SDS011;23001;45.952;12.676;2024-03-08T09:34:40;11.43;;;8.80;;
37085;SDS011;23001;45.952;12.676;2024-03-08T09:37:06;10.68;;;9.15;;
37085;SDS011;23001;45.952;12.676;2024-03-08T09:39:32;11.93;;;9.65;;
37085;SDS011;23001;45.952;12.676;2024-03-08T09:41:58;10.43;;;9.25;;
37085;SDS011;23001;45.952;12.676;2024-03-08T09:44:24;12.15;;;9.90;;
37085;SDS011;23001;45.952;12.676;2024-03-08T09:46:50;18.05;;;14.45;;
37085;SDS011;23001;45.952;12.676;2024-03-08T09:49:19;9.23;;;8.10;;
37085;SDS011;23001;45.952;12.676;2024-03-08T09:51:44;12.02;;;10.40;;
37085;SDS011;23001;45.952;12.676;2024-03-08T09:54:11;13.05;;;9.45;;
37085;SDS011;23001;45.952;12.676;2024-03-08T09:56:37;11.15;;;9.48;;
37085;SDS011;23001;45.952;12.676;2024-03-08T09:59:06;10.50;;;9.40;;
37085;SDS011;23001;45.952;12.676;2024-03-08T10:01:50;14.00;;;10.30;;
37085;SDS011;23001;45.952;12.676;2024-03-08T10:04:24;11.98;;;10.25;;
37085;SDS011;23001;45.952;12.676;2024-03-08T10:06:51;11.63;;;8.60;;
37085;SDS011;23001;45.952;12.676;2024-03-08T10:09:17;12.05;;;9.60;;
37085;SDS011;23001;45.952;12.676;2024-03-08T10:11:45;11.15;;;8.70;;
37085;SDS011;23001;45.952;12.676;2024-03-08T10:14:11;13.02;;;9.02;;
37085;SDS011;23001;45.952;12.676;2024-03-08T10:16:39;10.57;;;8.73;;
37085;SDS011;23001;45.952;12.676;2024-03-08T10:19:05;9.90;;;8.40;;
37085;SDS011;23001;45.952;12.676;2024-03-08T10:21:32;10.70;;;9.07;;
37085;SDS011;23001;45.952;12.676;2024-03-08T10:23:58;9.98;;;8.75;;
37085;SDS011;23001;45.952;12.676;2024-03-08T10:26:24;11.82;;;8.35;;
37085;SDS011;23001;45.952;12.676;2024-03-08T10:28:51;11.30;;;9.13;;
37085;SDS011;23001;45.952;12.676;2024-03-08T10:31:20;10.88;;;9.35;;
37085;SDS011;23001;45.952;12.676;2024-03-08T10:33:46;10.40;;;8.50;;
37085;SDS011;23001;45.952;12.676;2024-03-08T10:36:13;12.80;;;8.75;;
37085;SDS011;23001;45.952;12.676;2024-03-08T10:38:40;10.60;;;8.82;;
37085;SDS011;23001;45.952;12.676;2024-03-08T10:41:08;11.10;;;8.57;;
37085;SDS011;23001;45.952;12.676;2024-03-08T10:49:05;10.88;;;9.02;;
37085;SDS011;23001;45.952;12.676;2024-03-08T10:51:37;11.77;;;9.70;;
37085;SDS011;23001;45.952;12.676;2024-03-08T10:54:06;10.40;;;9.20;;
37085;SDS011;23001;45.952;12.676;2024-03-08T10:56:34;10.20;;;8.85;;
37085;SDS011;23001;45.952;12.676;2024-03-08T10:59:01;9.43;;;7.97;;
37085;SDS011;23001;45.952;12.676;2024-03-08T11:01:29;10.32;;;8.57;;
37085;SDS011;23001;45.952;12.676;2024-03-08T11:03:54;11.98;;;8.77;;
37085;SDS011;23001;45.952;12.676;2024-03-08T11:06:22;10.80;;;8.55;;
37085;SDS011;23001;45.952;12.676;2024-03-08T11:08:54;11.10;;;8.35;;
37085;SDS011;23001;45.952;12.676;2024-03-08T11:13:52;11.23;;;9.77;;
37085;SDS011;23001;45.952;12.676;2024-03-08T11:21:32;10.80;;;8.23;;
37085;SDS011;23001;45.952;12.676;2024-03-08T11:24:02;11.63;;;8.20;;
37085;SDS011;23001;45.952;12.676;2024-03-08T11:26:32;12.35;;;9.40;;
37085;SDS011;23001;45.952;12.676;2024-03-08T11:32:14;10.38;;;9.00;;
37085;SDS011;23001;45.952;12.676;2024-03-08T11:34:42;8.85;;;7.47;;
37085;SDS011;23001;45.952;12.676;2024-03-08T11:37:16;9.02;;;7.28;;
37085;SDS011;23001;45.952;12.676;2024-03-08T11:42:13;9.50;;;7.55;;
37085;SDS011;23001;45.952;12.676;2024-03-08T11:44:40;9.50;;;7.88;;
37085;SDS011;23001;45.952;12.676;2024-03-08T11:47:09;8.88;;;7.00;;
37085;SDS011;23001;45.952;12.676;2024-03-08T11:49:36;10.70;;;8.45;;
37085;SDS011;23001;45.952;12.676;2024-03-08T11:52:02;8.32;;;7.45;;
37085;SDS011;23001;45.952;12.676;2024-03-08T11:54:28;12.30;;;8.75;;
37085;SDS011;23001;45.952;12.676;2024-03-08T11:56:57;10.05;;;8.13;;
37085;SDS011;23001;45.952;12.676;2024-03-08T11:59:28;10.68;;;8.15;;
37085;SDS011;23001;45.952;12.676;2024-03-08T12:02:04;9.05;;;7.82;;
37085;SDS011;23001;45.952;12.676;2024-03-08T12:04:31;9.43;;;7.30;;
37085;SDS011;23001;45.952;12.676;2024-03-08T12:07:00;9.63;;;7.13;;
37085;SDS011;23001;45.952;12.676;2024-03-08T12:09:28;9.10;;;7.85;;
37085;SDS011;23001;45.952;12.676;2024-03-08T12:11:54;8.48;;;7.57;;
37085;SDS011;23001;45.952;12.676;2024-03-08T12:14:20;12.38;;;8.27;;
37085;SDS011;23001;45.952;12.676;2024-03-08T12:16:46;10.00;;;8.55;;
37085;SDS011;23001;45.952;12.676;2024-03-08T12:19:13;9.75;;;8.75;;
37085;SDS011;23001;45.952;12.676;2024-03-08T12:21:41;10.80;;;8.68;;
37085;SDS011;23001;45.952;12.676;2024-03-08T12:24:13;10.93;;;7.88;;
37085;SDS011;23001;45.952;12.676;2024-03-08T12:26:41;9.80;;;7.85;;
37085;SDS011;23001;45.952;12.676;2024-03-08T12:31:45;10.93;;;8.80;;
37085;SDS011;23001;45.952;12.676;2024-03-08T12:34:12;9.52;;;7.50;;
37085;SDS011;23001;45.952;12.676;2024-03-08T12:36:43;8.82;;;7.45;;
37085;SDS011;23001;45.952;12.676;2024-03-08T12:39:17;11.75;;;7.78;;
37085;SDS011;23001;45.952;12.676;2024-03-08T12:41:47;9.38;;;7.38;;
37085;SDS011;23001;45.952;12.676;2024-03-08T12:44:17;8.70;;;7.43;;
37085;SDS011;23001;45.952;12.676;2024-03-08T12:46:46;9.52;;;8.10;;
37085;SDS011;23001;45.952;12.676;2024-03-08T12:49:13;9.35;;;7.97;;
37085;SDS011;23001;45.952;12.676;2024-03-08T12:51:42;10.30;;;7.80;;
37085;SDS011;23001;45.952;12.676;2024-03-08T12:54:12;9.13;;;8.07;;
37085;SDS011;23001;45.952;12.676;2024-03-08T12:56:50;9.68;;;7.97;;
37085;SDS011;23001;45.952;12.676;2024-03-08T12:59:22;10.00;;;7.85;;
37085;SDS011;23001;45.952;12.676;2024-03-08T13:01:54;9.45;;;7.93;;
37085;SDS011;23001;45.952;12.676;2024-03-08T13:04:28;10.52;;;8.25;;
37085;SDS011;23001;45.952;12.676;2024-03-08T13:06:56;10.57;;;8.05;;
37085;SDS011;23001;45.952;12.676;2024-03-08T13:09:22;9.45;;;8.02;;
37085;SDS011;23001;45.952;12.676;2024-03-08T13:11:48;9.98;;;7.32;;
37085;SDS011;23001;45.952;12.676;2024-03-08T13:14:14;11.05;;;8.38;;
37085;SDS011;23001;45.952;12.676;2024-03-08T13:16:40;11.35;;;8.52;;
37085;SDS011;23001;45.952;12.676;2024-03-08T13:19:06;10.18;;;8.35;;
37085;SDS011;23001;45.952;12.676;2024-03-08T13:21:32;11.02;;;7.43;;
37085;SDS011;23001;45.952;12.676;2024-03-08T13:23:58;10.15;;;8.57;;
37085;SDS011;23001;45.952;12.676;2024-03-08T13:26:26;11.20;;;8.32;;
37085;SDS011;23001;45.952;12.676;2024-03-08T13:28:57;8.98;;;7.57;;
37085;SDS011;23001;45.952;12.676;2024-03-08T13:31:23;9.73;;;8.50;;
37085;SDS011;23001;45.952;12.676;2024-03-08T13:33:53;10.38;;;8.77;;
37085;SDS011;23001;45.952;12.676;2024-03-08T13:36:23;10.38;;;8.77;;
37085;SDS011;23001;45.952;12.676;2024-03-08T13:38:54;9.95;;;7.88;;
37085;SDS011;23001;45.952;12.676;2024-03-08T13:41:20;10.05;;;8.48;;
37085;SDS011;23001;45.952;12.676;2024-03-08T13:43:49;8.82;;;7.55;;
37085;SDS011;23001;45.952;12.676;2024-03-08T13:46:15;10.35;;;8.30;;
37085;SDS011;23001;45.952;12.676;2024-03-08T13:48:42;10.32;;;8.45;;
37085;SDS011;23001;45.952;12.676;2024-03-08T13:51:08;11.20;;;8.82;;
37085;SDS011;23001;45.952;12.676;2024-03-08T13:53:40;10.00;;;8.52;;
37085;SDS011;23001;45.952;12.676;2024-03-08T13:56:06;8.70;;;7.80;;
37085;SDS011;23001;45.952;12.676;2024-03-08T13:58:35;11.15;;;8.90;;
37085;SDS011;23001;45.952;12.676;2024-03-08T14:01:01;8.73;;;7.45;;
37085;SDS011;23001;45.952;12.676;2024-03-08T14:03:30;7.38;;;6.55;;
37085;SDS011;23001;45.952;12.676;2024-03-08T14:05:57;7.53;;;6.13;;
37085;SDS011;23001;45.952;12.676;2024-03-08T14:14:11;9.60;;;7.30;;
37085;SDS011;23001;45.952;12.676;2024-03-08T14:16:40;7.68;;;6.82;;
37085;SDS011;23001;45.952;12.676;2024-03-08T14:19:05;8.52;;;7.07;;
37085;SDS011;23001;45.952;12.676;2024-03-08T14:21:32;8.43;;;6.80;;
37085;SDS011;23001;45.952;12.676;2024-03-08T14:23:58;7.82;;;7.03;;
37085;SDS011;23001;45.952;12.676;2024-03-08T14:26:24;8.75;;;7.43;;
37085;SDS011;23001;45.952;12.676;2024-03-08T14:28:51;7.85;;;7.05;;
37085;SDS011;23001;45.952;12.676;2024-03-08T14:31:22;9.10;;;7.35;;
37085;SDS011;23001;45.952;12.676;2024-03-08T14:33:51;8.55;;;6.43;;
37085;SDS011;23001;45.952;12.676;2024-03-08T14:36:17;7.68;;;6.75;;
37085;SDS011;23001;45.952;12.676;2024-03-08T14:38:47;10.00;;;7.22;;
37085;SDS011;23001;45.952;12.676;2024-03-08T14:41:13;8.60;;;7.68;;
37085;SDS011;23001;45.952;12.676;2024-03-08T14:43:43;8.40;;;7.43;;
37085;SDS011;23001;45.952;12.676;2024-03-08T14:46:12;10.05;;;7.07;;
37085;SDS011;23001;45.952;12.676;2024-03-08T14:48:45;8.80;;;7.20;;
37085;SDS011;23001;45.952;12.676;2024-03-08T14:51:21;9.88;;;7.15;;
37085;SDS011;23001;45.952;12.676;2024-03-08T14:53:51;8.30;;;7.47;;
37085;SDS011;23001;45.952;12.676;2024-03-08T14:56:18;8.73;;;7.47;;
37085;SDS011;23001;45.952;12.676;2024-03-08T14:58:44;9.50;;;7.38;;
37085;SDS011;23001;45.952;12.676;2024-03-08T15:01:11;8.43;;;7.53;;
37085;SDS011;23001;45.952;12.676;2024-03-08T15:03:40;8.00;;;6.53;;
37085;SDS011;23001;45.952;12.676;2024-03-08T15:06:07;6.93;;;6.22;;
37085;SDS011;23001;45.952;12.676;2024-03-08T15:08:35;7.60;;;6.10;;
37085;SDS011;23001;45.952;12.676;2024-03-08T15:11:01;6.63;;;5.75;;
37085;SDS011;23001;45.952;12.676;2024-03-08T15:13:27;7.32;;;6.55;;
37085;SDS011;23001;45.952;12.676;2024-03-08T15:16:03;8.38;;;7.00;;
37085;SDS011;23001;45.952;12.676;2024-03-08T15:18:31;7.45;;;6.18;;
37085;SDS011;23001;45.952;12.676;2024-03-08T15:21:01;7.43;;;6.35;;
37085;SDS011;23001;45.952;12.676;2024-03-08T15:23:37;8.63;;;7.00;;
37085;SDS011;23001;45.952;12.676;2024-03-08T15:26:08;7.30;;;6.55;;
37085;SDS011;23001;45.952;12.676;2024-03-08T15:28:34;7.15;;;6.45;;
37085;SDS011;23001;45.952;12.676;2024-03-08T15:31:04;8.05;;;7.13;;
37085;SDS011;23001;45.952;12.676;2024-03-08T15:33:34;8.25;;;7.13;;
37085;SDS011;23001;45.952;12.676;2024-03-08T15:36:11;7.63;;;6.82;;
37085;SDS011;23001;45.952;12.676;2024-03-08T15:38:39;7.82;;;7.03;;
37085;SDS011;23001;45.952;12.676;2024-03-08T15:41:05;8.02;;;6.60;;
37085;SDS011;23001;45.952;12.676;2024-03-08T15:43:38;8.18;;;6.90;;
37085;SDS011;23001;45.952;12.676;2024-03-08T15:46:05;10.32;;;6.95;;